sensor_id;sensor_type;location;lat;lon;timestamp;P1;durP1;ratioP1;P2;durP2;ratioP2
11911;SDS011;6016;41.928;25.556;2023-03-24T00:01:21;16.48;;;9.05;;
11911;SDS011;6016;41.928;25.556;2023-03-24T00:03:48;16.70;;;9.65;;
11911;SDS011;6016;41.928;25.556;2023-03-24T00:06:16;16.45;;;8.98;;
11911;SDS011;6016;41.928;25.556;2023-03-24T00:08:47;17.02;;;9.13;;
11911;SDS011;6016;41.928;25.556;2023-03-24T00:11:14;15.95;;;9.00;;
11911;SDS011;6016;41.928;25.556;2023-03-24T00:13:42;16.98;;;9.18;;
11911;SDS011;6016;41.928;25.556;2023-03-24T00:16:13;24.40;;;12.93;;
11911;SDS011;6016;41.928;25.556;2023-03-24T00:18:41;17.98;;;9.50;;
11911;SDS011;6016;41.928;25.556;2023-03-24T00:21:08;18.85;;;10.20;;
11911;SDS011;6016;41.928;25.556;2023-03-24T00:23:37;20.20;;;8.60;;
11911;SDS011;6016;41.928;25.556;2023-03-24T00:26:07;18.17;;;8.25;;
11911;SDS011;6016;41.928;25.556;2023-03-24T00:28:36;13.68;;;8.40;;
11911;SDS011;6016;41.928;25.556;2023-03-24T00:31:04;14.75;;;8.35;;
11911;SDS011;6016;41.928;25.556;2023-03-24T00:33:34;16.38;;;8.40;;
11911;SDS011;6016;41.928;25.556;2023-03-24T00:36:05;15.18;;;8.20;;
11911;SDS011;6016;41.928;25.556;2023-03-24T00:38:36;15.13;;;8.57;;
11911;SDS011;6016;41.928;25.556;2023-03-24T00:41:04;16.08;;;8.52;;
11911;SDS011;6016;41.928;25.556;2023-03-24T00:43:32;16.00;;;8.48;;
11911;SDS011;6016;41.928;25.556;2023-03-24T00:46:00;18.52;;;8.48;;
11911;SDS011;6016;41.928;25.556;2023-03-24T00:48:28;17.50;;;9.38;;
11911;SDS011;6016;41.928;25.556;2023-03-24T00:50:59;15.57;;;8.80;;
11911;SDS011;6016;41.928;25.556;2023-03-24T00:53:28;17.15;;;8.27;;
11911;SDS011;6016;41.928;25.556;2023-03-24T00:55:55;14.02;;;8.15;;
11911;SDS011;6016;41.928;25.556;2023-03-24T00:58:24;15.05;;;8.38;;
11911;SDS011;6016;41.928;25.556;2023-03-24T01:00:54;16.55;;;7.97;;
11911;SDS011;6016;41.928;25.556;2023-03-24T01:03:23;14.18;;;7.78;;
11911;SDS011;6016;41.928;25.556;2023-03-24T01:05:52;20.75;;;8.07;;
11911;SDS011;6016;41.928;25.556;2023-03-24T01:08:23;13.38;;;7.30;;
11911;SDS011;6016;41.928;25.556;2023-03-24T01:10:50;14.25;;;8.05;;
11911;SDS011;6016;41.928;25.556;2023-03-24T01:13:18;14.27;;;7.65;;
11911;SDS011;6016;41.928;25.556;2023-03-24T01:15:46;13.93;;;7.78;;
11911;SDS011;6016;41.928;25.556;2023-03-24T01:18:13;14.25;;;8.05;;
11911;SDS011;6016;41.928;25.556;2023-03-24T01:20:41;14.27;;;7.70;;
11911;SDS011;6016;41.928;25.556;2023-03-24T01:23:11;11.70;;;7.03;;
11911;SDS011;6016;41.928;25.556;2023-03-24T01:25:41;11.77;;;7.22;;
11911;SDS011;6016;41.928;25.556;2023-03-24T01:28:09;14.25;;;7.88;;
11911;SDS011;6016;41.928;25.556;2023-03-24T01:30:37;13.50;;;7.68;;
11911;SDS011;6016;41.928;25.556;2023-03-24T01:33:04;14.52;;;8.07;;
11911;SDS011;6016;41.928;25.556;2023-03-24T01:35:31;12.05;;;6.97;;
11911;SDS011;6016;41.928;25.556;2023-03-24T01:37:59;13.13;;;7.20;;
11911;SDS011;6016;41.928;25.556;2023-03-24T01:40:26;14.10;;;7.13;;
11911;SDS011;6016;41.928;25.556;2023-03-24T01:42:57;12.70;;;7.25;;
11911;SDS011;6016;41.928;25.556;2023-03-24T01:45:44;11.25;;;6.80;;
11911;SDS011;6016;41.928;25.556;2023-03-24T01:48:23;11.80;;;6.35;;
11911;SDS011;6016;41.928;25.556;2023-03-24T01:50:54;11.80;;;6.90;;
11911;SDS011;6016;41.928;25.556;2023-03-24T01:53:25;10.95;;;7.22;;
11911;SDS011;6016;41.928;25.556;2023-03-24T01:55:52;13.10;;;6.63;;
11911;SDS011;6016;41.928;25.556;2023-03-24T01:58:22;13.40;;;7.10;;
11911;SDS011;6016;41.928;25.556;2023-03-24T02:00:50;12.75;;;7.22;;
11911;SDS011;6016;41.928;25.556;2023-03-24T02:03:18;15.68;;;7.65;;
11911;SDS011;6016;41.928;25.556;2023-03-24T02:05:49;15.43;;;7.40;;
11911;SDS011;6016;41.928;25.556;2023-03-24T02:08:19;17.42;;;8.05;;
11911;SDS011;6016;41.928;25.556;2023-03-24T02:10:50;16.90;;;8.43;;
11911;SDS011;6016;41.928;25.556;2023-03-24T02:13:19;14.30;;;7.90;;
11911;SDS011;6016;41.928;25.556;2023-03-24T02:15:50;14.80;;;8.10;;
11911;SDS011;6016;41.928;25.556;2023-03-24T02:18:28;14.02;;;7.53;;
11911;SDS011;6016;41.928;25.556;2023-03-24T02:27:11;17.08;;;7.80;;
11911;SDS011;6016;41.928;25.556;2023-03-24T02:30:13;13.38;;;7.18;;
11911;SDS011;6016;41.928;25.556;2023-03-24T02:33:02;13.10;;;7.30;;
11911;SDS011;6016;41.928;25.556;2023-03-24T02:36:12;13.32;;;7.05;;
11911;SDS011;6016;41.928;25.556;2023-03-24T02:39:17;13.98;;;6.63;;
11911;SDS011;6016;41.928;25.556;2023-03-24T02:42:05;12.32;;;6.95;;
11911;SDS011;6016;41.928;25.556;2023-03-24T02:44:45;13.90;;;7.28;;
11911;SDS011;6016;41.928;25.556;2023-03-24T02:47:19;15.82;;;7.57;;
11911;SDS011;6016;41.928;25.556;2023-03-24T02:49:52;14.75;;;7.88;;
11911;SDS011;6016;41.928;25.556;2023-03-24T02:52:26;15.20;;;7.70;;
11911;SDS011;6016;41.928;25.556;2023-03-24T02:55:02;13.75;;;7.22;;
11911;SDS011;6016;41.928;25.556;2023-03-24T02:57:36;14.98;;;7.47;;
11911;SDS011;6016;41.928;25.556;2023-03-24T03:00:08;11.73;;;7.18;;
11911;SDS011;6016;41.928;25.556;2023-03-24T03:02:42;13.55;;;7.80;;
11911;SDS011;6016;41.928;25.556;2023-03-24T03:05:13;13.43;;;7.38;;
11911;SDS011;6016;41.928;25.556;2023-03-24T03:07:44;17.65;;;8.95;;
11911;SDS011;6016;41.928;25.556;2023-03-24T03:10:16;15.70;;;8.45;;
11911;SDS011;6016;41.928;25.556;2023-03-24T03:12:50;16.13;;;9.18;;
11911;SDS011;6016;41.928;25.556;2023-03-24T03:15:20;15.38;;;8.48;;
11911;SDS011;6016;41.928;25.556;2023-03-24T03:17:50;14.50;;;8.25;;
11911;SDS011;6016;41.928;25.556;2023-03-24T03:20:23;17.50;;;8.52;;
11911;SDS011;6016;41.928;25.556;2023-03-24T03:22:55;17.75;;;8.57;;
11911;SDS011;6016;41.928;25.556;2023-03-24T03:27:58;12.02;;;6.40;;
11911;SDS011;6016;41.928;25.556;2023-03-24T03:30:30;12.23;;;6.85;;
11911;SDS011;6016;41.928;25.556;2023-03-24T03:33:04;15.75;;;7.35;;
11911;SDS011;6016;41.928;25.556;2023-03-24T03:35:34;10.90;;;6.38;;
11911;SDS011;6016;41.928;25.556;2023-03-24T03:38:06;14.23;;;6.18;;
11911;SDS011;6016;41.928;25.556;2023-03-24T03:40:42;15.18;;;6.90;;
11911;SDS011;6016;41.928;25.556;2023-03-24T03:43:16;14.85;;;6.65;;
11911;SDS011;6016;41.928;25.556;2023-03-24T03:45:43;11.25;;;6.03;;
11911;SDS011;6016;41.928;25.556;2023-03-24T03:48:10;15.48;;;7.28;;
11911;SDS011;6016;41.928;25.556;2023-03-24T03:50:37;13.77;;;7.43;;
11911;SDS011;6016;41.928;25.556;2023-03-24T03:53:04;14.30;;;7.53;;
11911;SDS011;6016;41.928;25.556;2023-03-24T03:55:32;22.10;;;10.93;;
11911;SDS011;6016;41.928;25.556;2023-03-24T03:58:01;18.25;;;9.13;;
11911;SDS011;6016;41.928;25.556;2023-03-24T04:00:28;11.88;;;6.30;;
11911;SDS011;6016;41.928;25.556;2023-03-24T04:03:06;12.48;;;6.10;;
11911;SDS011;6016;41.928;25.556;2023-03-24T04:05:49;9.82;;;5.80;;
11911;SDS011;6016;41.928;25.556;2023-03-24T04:08:26;9.75;;;5.63;;
11911;SDS011;6016;41.928;25.556;2023-03-24T04:17:08;8.70;;;4.50;;
11911;SDS011;6016;41.928;25.556;2023-03-24T04:19:48;9.82;;;5.32;;
11911;SDS011;6016;41.928;25.556;2023-03-24T04:22:31;9.73;;;5.25;;
11911;SDS011;6016;41.928;25.556;2023-03-24T04:25:08;16.48;;;8.30;;
11911;SDS011;6016;41.928;25.556;2023-03-24T04:27:42;21.67;;;8.90;;
11911;SDS011;6016;41.928;25.556;2023-03-24T04:30:24;42.03;;;13.88;;
11911;SDS011;6016;41.928;25.556;2023-03-24T04:32:57;35.60;;;12.32;;
11911;SDS011;6016;41.928;25.556;2023-03-24T04:35:27;25.55;;;11.40;;
11911;SDS011;6016;41.928;25.556;2023-03-24T04:37:58;18.50;;;8.77;;
11911;SDS011;6016;41.928;25.556;2023-03-24T04:40:29;21.70;;;7.72;;
11911;SDS011;6016;41.928;25.556;2023-03-24T04:42:59;12.25;;;6.55;;
11911;SDS011;6016;41.928;25.556;2023-03-24T04:45:32;12.07;;;6.90;;
11911;SDS011;6016;41.928;25.556;2023-03-24T04:48:01;15.65;;;7.35;;
11911;SDS011;6016;41.928;25.556;2023-03-24T04:50:30;16.48;;;8.27;;
11911;SDS011;6016;41.928;25.556;2023-03-24T04:53:01;17.23;;;9.07;;
11911;SDS011;6016;41.928;25.556;2023-03-24T04:55:36;18.33;;;8.98;;
11911;SDS011;6016;41.928;25.556;2023-03-24T04:58:16;16.02;;;8.75;;
11911;SDS011;6016;41.928;25.556;2023-03-24T05:00:45;14.50;;;8.68;;
11911;SDS011;6016;41.928;25.556;2023-03-24T05:03:13;18.50;;;8.90;;
11911;SDS011;6016;41.928;25.556;2023-03-24T05:05:42;14.80;;;7.85;;
11911;SDS011;6016;41.928;25.556;2023-03-24T05:08:09;14.40;;;7.72;;
11911;SDS011;6016;41.928;25.556;2023-03-24T05:10:36;12.73;;;7.60;;
11911;SDS011;6016;41.928;25.556;2023-03-24T05:13:04;12.55;;;7.10;;
11911;SDS011;6016;41.928;25.556;2023-03-24T05:15:32;12.73;;;7.28;;
11911;SDS011;6016;41.928;25.556;2023-03-24T05:18:00;15.35;;;7.82;;
11911;SDS011;6016;41.928;25.556;2023-03-24T05:20:28;16.52;;;7.35;;
11911;SDS011;6016;41.928;25.556;2023-03-24T05:22:55;16.08;;;7.72;;
11911;SDS011;6016;41.928;25.556;2023-03-24T05:25:22;13.70;;;7.15;;
11911;SDS011;6016;41.928;25.556;2023-03-24T05:27:48;16.23;;;8.70;;
11911;SDS011;6016;41.928;25.556;2023-03-24T05:30:15;32.83;;;15.57;;
11911;SDS011;6016;41.928;25.556;2023-03-24T05:32:44;37.90;;;17.55;;
11911;SDS011;6016;41.928;25.556;2023-03-24T05:35:12;40.13;;;20.13;;
11911;SDS011;6016;41.928;25.556;2023-03-24T05:37:40;34.30;;;18.10;;
11911;SDS011;6016;41.928;25.556;2023-03-24T05:40:07;36.33;;;17.20;;
11911;SDS011;6016;41.928;25.556;2023-03-24T05:42:35;33.92;;;14.93;;
11911;SDS011;6016;41.928;25.556;2023-03-24T05:45:01;29.80;;;14.27;;
11911;SDS011;6016;41.928;25.556;2023-03-24T05:47:30;24.98;;;12.98;;
11911;SDS011;6016;41.928;25.556;2023-03-24T05:49:57;23.83;;;11.98;;
11911;SDS011;6016;41.928;25.556;2023-03-24T05:52:25;23.45;;;12.13;;
11911;SDS011;6016;41.928;25.556;2023-03-24T05:54:52;32.05;;;14.90;;
11911;SDS011;6016;41.928;25.556;2023-03-24T05:57:19;82.93;;;34.92;;
11911;SDS011;6016;41.928;25.556;2023-03-24T05:59:47;44.97;;;22.27;;
11911;SDS011;6016;41.928;25.556;2023-03-24T06:02:14;45.92;;;19.25;;
11911;SDS011;6016;41.928;25.556;2023-03-24T06:04:41;34.97;;;17.20;;
11911;SDS011;6016;41.928;25.556;2023-03-24T06:07:10;35.15;;;17.33;;
11911;SDS011;6016;41.928;25.556;2023-03-24T06:09:38;36.70;;;18.63;;
11911;SDS011;6016;41.928;25.556;2023-03-24T06:12:07;43.63;;;20.30;;
11911;SDS011;6016;41.928;25.556;2023-03-24T06:14:34;43.03;;;21.55;;
11911;SDS011;6016;41.928;25.556;2023-03-24T06:17:02;34.10;;;18.08;;
11911;SDS011;6016;41.928;25.556;2023-03-24T06:19:29;38.33;;;18.77;;
11911;SDS011;6016;41.928;25.556;2023-03-24T06:21:58;32.45;;;17.20;;
11911;SDS011;6016;41.928;25.556;2023-03-24T06:24:27;48.97;;;23.67;;
11911;SDS011;6016;41.928;25.556;2023-03-24T06:26:56;46.47;;;23.52;;
11911;SDS011;6016;41.928;25.556;2023-03-24T06:29:26;32.53;;;17.95;;
11911;SDS011;6016;41.928;25.556;2023-03-24T06:31:53;26.67;;;14.82;;
11911;SDS011;6016;41.928;25.556;2023-03-24T06:34:20;26.25;;;12.50;;
11911;SDS011;6016;41.928;25.556;2023-03-24T06:36:49;32.22;;;16.67;;
11911;SDS011;6016;41.928;25.556;2023-03-24T06:39:15;32.08;;;15.30;;
11911;SDS011;6016;41.928;25.556;2023-03-24T06:41:42;30.75;;;15.13;;
11911;SDS011;6016;41.928;25.556;2023-03-24T06:44:11;25.75;;;14.73;;
11911;SDS011;6016;41.928;25.556;2023-03-24T06:46:37;31.33;;;17.48;;
11911;SDS011;6016;41.928;25.556;2023-03-24T06:49:04;43.28;;;23.08;;
11911;SDS011;6016;41.928;25.556;2023-03-24T06:51:31;21.48;;;12.77;;
11911;SDS011;6016;41.928;25.556;2023-03-24T06:53:58;47.42;;;24.00;;
11911;SDS011;6016;41.928;25.556;2023-03-24T06:56:25;17.02;;;8.48;;
11911;SDS011;6016;41.928;25.556;2023-03-24T06:58:52;24.10;;;13.52;;
11911;SDS011;6016;41.928;25.556;2023-03-24T07:01:20;15.23;;;9.55;;
11911;SDS011;6016;41.928;25.556;2023-03-24T07:03:48;23.23;;;13.18;;
11911;SDS011;6016;41.928;25.556;2023-03-24T07:06:15;18.50;;;9.00;;
11911;SDS011;6016;41.928;25.556;2023-03-24T07:08:42;14.88;;;9.88;;
11911;SDS011;6016;41.928;25.556;2023-03-24T07:11:10;23.70;;;14.50;;
11911;SDS011;6016;41.928;25.556;2023-03-24T07:13:37;14.93;;;9.38;;
11911;SDS011;6016;41.928;25.556;2023-03-24T07:16:04;17.02;;;10.15;;
11911;SDS011;6016;41.928;25.556;2023-03-24T07:18:32;13.60;;;8.20;;
11911;SDS011;6016;41.928;25.556;2023-03-24T07:21:00;16.67;;;10.15;;
11911;SDS011;6016;41.928;25.556;2023-03-24T07:23:26;17.08;;;11.02;;
11911;SDS011;6016;41.928;25.556;2023-03-24T07:25:54;19.13;;;10.25;;
11911;SDS011;6016;41.928;25.556;2023-03-24T07:28:21;18.08;;;11.18;;
11911;SDS011;6016;41.928;25.556;2023-03-24T07:30:48;14.57;;;9.85;;
11911;SDS011;6016;41.928;25.556;2023-03-24T07:33:14;18.13;;;10.45;;
11911;SDS011;6016;41.928;25.556;2023-03-24T07:35:42;15.75;;;10.05;;
11911;SDS011;6016;41.928;25.556;2023-03-24T07:38:09;15.63;;;10.27;;
11911;SDS011;6016;41.928;25.556;2023-03-24T07:40:36;18.55;;;11.32;;
11911;SDS011;6016;41.928;25.556;2023-03-24T07:43:04;16.27;;;10.30;;
11911;SDS011;6016;41.928;25.556;2023-03-24T07:45:31;18.02;;;10.75;;
11911;SDS011;6016;41.928;25.556;2023-03-24T07:47:58;18.10;;;11.13;;
11911;SDS011;6016;41.928;25.556;2023-03-24T07:50:27;18.58;;;11.55;;
11911;SDS011;6016;41.928;25.556;2023-03-24T07:52:55;17.55;;;11.65;;
11911;SDS011;6016;41.928;25.556;2023-03-24T07:55:22;16.25;;;11.40;;
11911;SDS011;6016;41.928;25.556;2023-03-24T07:57:49;17.00;;;11.85;;
11911;SDS011;6016;41.928;25.556;2023-03-24T08:00:17;16.63;;;10.95;;
11911;SDS011;6016;41.928;25.556;2023-03-24T08:02:46;13.32;;;9.57;;
11911;SDS011;6016;41.928;25.556;2023-03-24T08:05:14;19.27;;;10.68;;
11911;SDS011;6016;41.928;25.556;2023-03-24T08:07:44;17.17;;;10.75;;
11911;SDS011;6016;41.928;25.556;2023-03-24T08:10:16;15.95;;;9.68;;
11911;SDS011;6016;41.928;25.556;2023-03-24T08:12:43;14.90;;;10.23;;
11911;SDS011;6016;41.928;25.556;2023-03-24T08:15:09;15.48;;;9.70;;
11911;SDS011;6016;41.928;25.556;2023-03-24T08:17:37;12.93;;;8.70;;
11911;SDS011;6016;41.928;25.556;2023-03-24T08:20:05;10.02;;;7.70;;
11911;SDS011;6016;41.928;25.556;2023-03-24T08:22:36;10.98;;;7.72;;
11911;SDS011;6016;41.928;25.556;2023-03-24T08:25:04;8.18;;;6.13;;
11911;SDS011;6016;41.928;25.556;2023-03-24T08:27:33;11.45;;;6.97;;
11911;SDS011;6016;41.928;25.556;2023-03-24T08:30:01;8.43;;;6.88;;
11911;SDS011;6016;41.928;25.556;2023-03-24T08:32:29;8.02;;;6.28;;
11911;SDS011;6016;41.928;25.556;2023-03-24T08:34:56;8.90;;;6.93;;
11911;SDS011;6016;41.928;25.556;2023-03-24T08:37:23;8.88;;;6.82;;
11911;SDS011;6016;41.928;25.556;2023-03-24T08:39:50;9.27;;;6.80;;
11911;SDS011;6016;41.928;25.556;2023-03-24T08:42:22;10.73;;;7.05;;
11911;SDS011;6016;41.928;25.556;2023-03-24T08:44:50;9.27;;;6.95;;
11911;SDS011;6016;41.928;25.556;2023-03-24T08:47:17;11.13;;;7.20;;
11911;SDS011;6016;41.928;25.556;2023-03-24T08:49:45;8.68;;;6.38;;
11911;SDS011;6016;41.928;25.556;2023-03-24T08:52:12;9.52;;;6.80;;
11911;SDS011;6016;41.928;25.556;2023-03-24T08:54:38;9.80;;;6.95;;
11911;SDS011;6016;41.928;25.556;2023-03-24T08:57:05;10.52;;;6.97;;
11911;SDS011;6016;41.928;25.556;2023-03-24T08:59:32;10.13;;;7.30;;
11911;SDS011;6016;41.928;25.556;2023-03-24T09:02:00;10.13;;;6.50;;
11911;SDS011;6016;41.928;25.556;2023-03-24T09:04:29;8.68;;;6.20;;
11911;SDS011;6016;41.928;25.556;2023-03-24T09:06:56;12.93;;;8.30;;
11911;SDS011;6016;41.928;25.556;2023-03-24T09:09:24;7.43;;;5.93;;
11911;SDS011;6016;41.928;25.556;2023-03-24T09:11:51;8.50;;;6.53;;
11911;SDS011;6016;41.928;25.556;2023-03-24T09:14:18;7.78;;;5.93;;
11911;SDS011;6016;41.928;25.556;2023-03-24T09:16:46;7.32;;;5.63;;
11911;SDS011;6016;41.928;25.556;2023-03-24T09:19:15;8.52;;;6.05;;
11911;SDS011;6016;41.928;25.556;2023-03-24T09:21:42;8.15;;;5.70;;
11911;SDS011;6016;41.928;25.556;2023-03-24T09:24:11;8.20;;;5.20;;
11911;SDS011;6016;41.928;25.556;2023-03-24T09:26:38;6.75;;;5.70;;
11911;SDS011;6016;41.928;25.556;2023-03-24T09:29:05;8.02;;;6.00;;
11911;SDS011;6016;41.928;25.556;2023-03-24T09:31:32;7.72;;;5.30;;
11911;SDS011;6016;41.928;25.556;2023-03-24T09:33:59;6.82;;;4.70;;
11911;SDS011;6016;41.928;25.556;2023-03-24T09:36:28;5.32;;;4.20;;
11911;SDS011;6016;41.928;25.556;2023-03-24T09:38:55;6.10;;;4.40;;
11911;SDS011;6016;41.928;25.556;2023-03-24T09:41:24;5.07;;;3.78;;
11911;SDS011;6016;41.928;25.556;2023-03-24T09:43:54;5.65;;;4.10;;
11911;SDS011;6016;41.928;25.556;2023-03-24T09:46:25;33.50;;;22.50;;
11911;SDS011;6016;41.928;25.556;2023-03-24T09:48:56;8.38;;;5.70;;
11911;SDS011;6016;41.928;25.556;2023-03-24T09:51:24;127.97;;;49.25;;
11911;SDS011;6016;41.928;25.556;2023-03-24T09:53:55;6.38;;;4.35;;
11911;SDS011;6016;41.928;25.556;2023-03-24T09:56:30;7.35;;;4.38;;
11911;SDS011;6016;41.928;25.556;2023-03-24T09:59:00;5.82;;;4.55;;
11911;SDS011;6016;41.928;25.556;2023-03-24T10:01:29;7.75;;;4.57;;
11911;SDS011;6016;41.928;25.556;2023-03-24T10:03:57;6.90;;;4.50;;
11911;SDS011;6016;41.928;25.556;2023-03-24T10:06:25;6.95;;;4.70;;
11911;SDS011;6016;41.928;25.556;2023-03-24T10:09:00;6.20;;;4.55;;
11911;SDS011;6016;41.928;25.556;2023-03-24T10:11:41;7.35;;;5.10;;
11911;SDS011;6016;41.928;25.556;2023-03-24T10:14:16;7.10;;;4.82;;
11911;SDS011;6016;41.928;25.556;2023-03-24T10:16:54;6.70;;;4.78;;
11911;SDS011;6016;41.928;25.556;2023-03-24T10:19:33;9.70;;;4.93;;
11911;SDS011;6016;41.928;25.556;2023-03-24T10:22:09;7.20;;;5.05;;
11911;SDS011;6016;41.928;25.556;2023-03-24T10:24:47;6.38;;;4.90;;
11911;SDS011;6016;41.928;25.556;2023-03-24T10:27:22;7.43;;;4.60;;
11911;SDS011;6016;41.928;25.556;2023-03-24T10:29:57;5.30;;;4.13;;
11911;SDS011;6016;41.928;25.556;2023-03-24T10:32:31;5.70;;;4.32;;
11911;SDS011;6016;41.928;25.556;2023-03-24T10:35:00;5.88;;;4.43;;
11911;SDS011;6016;41.928;25.556;2023-03-24T10:37:33;8.77;;;4.50;;
11911;SDS011;6016;41.928;25.556;2023-03-24T10:40:04;5.38;;;3.95;;
11911;SDS011;6016;41.928;25.556;2023-03-24T10:42:40;5.43;;;3.95;;
11911;SDS011;6016;41.928;25.556;2023-03-24T10:45:10;5.50;;;3.85;;
11911;SDS011;6016;41.928;25.556;2023-03-24T10:47:39;17.98;;;13.98;;
11911;SDS011;6016;41.928;25.556;2023-03-24T10:50:08;5.45;;;4.00;;
11911;SDS011;6016;41.928;25.556;2023-03-24T10:52:39;4.00;;;3.00;;
11911;SDS011;6016;41.928;25.556;2023-03-24T10:55:13;6.73;;;3.63;;
11911;SDS011;6016;41.928;25.556;2023-03-24T10:57:43;8.68;;;4.63;;
11911;SDS011;6016;41.928;25.556;2023-03-24T11:00:16;8.57;;;4.35;;
11911;SDS011;6016;41.928;25.556;2023-03-24T11:02:53;7.03;;;3.40;;
11911;SDS011;6016;41.928;25.556;2023-03-24T11:05:25;4.50;;;3.42;;
11911;SDS011;6016;41.928;25.556;2023-03-24T11:07:56;5.00;;;3.15;;
11911;SDS011;6016;41.928;25.556;2023-03-24T11:10:37;4.38;;;3.28;;
11911;SDS011;6016;41.928;25.556;2023-03-24T11:13:04;5.43;;;3.50;;
11911;SDS011;6016;41.928;25.556;2023-03-24T11:15:32;5.15;;;3.38;;
11911;SDS011;6016;41.928;25.556;2023-03-24T11:18:06;4.03;;;3.20;;
11911;SDS011;6016;41.928;25.556;2023-03-24T11:20:40;8.02;;;3.90;;
11911;SDS011;6016;41.928;25.556;2023-03-24T11:23:12;6.57;;;4.13;;
11911;SDS011;6016;41.928;25.556;2023-03-24T11:25:46;5.10;;;3.50;;
11911;SDS011;6016;41.928;25.556;2023-03-24T11:28:19;5.25;;;3.40;;
11911;SDS011;6016;41.928;25.556;2023-03-24T11:30:51;5.43;;;3.47;;
11911;SDS011;6016;41.928;25.556;2023-03-24T11:33:20;4.70;;;3.33;;
11911;SDS011;6016;41.928;25.556;2023-03-24T11:35:50;7.78;;;4.38;;
11911;SDS011;6016;41.928;25.556;2023-03-24T11:38:17;4.47;;;3.33;;
11911;SDS011;6016;41.928;25.556;2023-03-24T11:40:54;4.10;;;3.15;;
11911;SDS011;6016;41.928;25.556;2023-03-24T11:43:24;4.60;;;3.15;;
11911;SDS011;6016;41.928;25.556;2023-03-24T11:45:54;5.35;;;3.50;;
11911;SDS011;6016;41.928;25.556;2023-03-24T11:48:26;6.85;;;4.10;;
11911;SDS011;6016;41.928;25.556;2023-03-24T11:50:57;5.18;;;3.58;;
11911;SDS011;6016;41.928;25.556;2023-03-24T11:53:26;5.07;;;3.80;;
11911;SDS011;6016;41.928;25.556;2023-03-24T11:55:58;8.02;;;4.90;;
11911;SDS011;6016;41.928;25.556;2023-03-24T11:58:30;6.47;;;3.60;;
11911;SDS011;6016;41.928;25.556;2023-03-24T12:01:04;8.30;;;5.47;;
11911;SDS011;6016;41.928;25.556;2023-03-24T12:03:49;6.65;;;3.80;;
11911;SDS011;6016;41.928;25.556;2023-03-24T12:09:13;6.60;;;3.38;;
11911;SDS011;6016;41.928;25.556;2023-03-24T12:11:52;6.32;;;3.75;;
11911;SDS011;6016;41.928;25.556;2023-03-24T12:14:31;5.43;;;3.25;;
11911;SDS011;6016;41.928;25.556;2023-03-24T12:17:08;4.00;;;3.05;;
11911;SDS011;6016;41.928;25.556;2023-03-24T12:19:45;6.15;;;4.32;;
11911;SDS011;6016;41.928;25.556;2023-03-24T12:22:23;4.38;;;2.97;;
11911;SDS011;6016;41.928;25.556;2023-03-24T12:25:13;6.28;;;4.13;;
11911;SDS011;6016;41.928;25.556;2023-03-24T12:27:51;4.88;;;3.47;;
11911;SDS011;6016;41.928;25.556;2023-03-24T12:30:27;5.00;;;3.08;;
11911;SDS011;6016;41.928;25.556;2023-03-24T12:33:03;5.20;;;3.50;;
11911;SDS011;6016;41.928;25.556;2023-03-24T12:35:54;11.00;;;5.78;;
11911;SDS011;6016;41.928;25.556;2023-03-24T12:38:41;8.70;;;5.10;;
11911;SDS011;6016;41.928;25.556;2023-03-24T12:41:23;5.05;;;3.13;;
11911;SDS011;6016;41.928;25.556;2023-03-24T12:44:09;4.28;;;2.90;;
11911;SDS011;6016;41.928;25.556;2023-03-24T12:46:46;3.28;;;2.55;;
11911;SDS011;6016;41.928;25.556;2023-03-24T12:49:25;3.70;;;2.80;;
11911;SDS011;6016;41.928;25.556;2023-03-24T12:52:13;4.70;;;2.80;;
11911;SDS011;6016;41.928;25.556;2023-03-24T12:54:50;3.70;;;2.88;;
11911;SDS011;6016;41.928;25.556;2023-03-24T12:57:20;7.70;;;3.90;;
11911;SDS011;6016;41.928;25.556;2023-03-24T12:59:53;5.67;;;3.50;;
11911;SDS011;6016;41.928;25.556;2023-03-24T13:02:26;5.93;;;3.63;;
11911;SDS011;6016;41.928;25.556;2023-03-24T13:04:59;3.60;;;3.00;;
11911;SDS011;6016;41.928;25.556;2023-03-24T13:07:29;4.05;;;3.00;;
11911;SDS011;6016;41.928;25.556;2023-03-24T13:10:03;4.28;;;3.10;;
11911;SDS011;6016;41.928;25.556;2023-03-24T13:12:37;3.88;;;2.60;;
11911;SDS011;6016;41.928;25.556;2023-03-24T13:15:14;7.97;;;3.00;;
11911;SDS011;6016;41.928;25.556;2023-03-24T13:17:43;2.92;;;2.50;;
11911;SDS011;6016;41.928;25.556;2023-03-24T13:20:16;4.28;;;2.72;;
11911;SDS011;6016;41.928;25.556;2023-03-24T13:22:47;4.13;;;2.78;;
11911;SDS011;6016;41.928;25.556;2023-03-24T13:25:18;4.47;;;2.97;;
11911;SDS011;6016;41.928;25.556;2023-03-24T13:27:54;4.05;;;3.05;;
11911;SDS011;6016;41.928;25.556;2023-03-24T13:32:59;7.90;;;4.25;;
11911;SDS011;6016;41.928;25.556;2023-03-24T13:35:36;6.22;;;3.75;;
11911;SDS011;6016;41.928;25.556;2023-03-24T13:38:14;7.05;;;3.40;;
11911;SDS011;6016;41.928;25.556;2023-03-24T13:40:45;5.13;;;2.90;;
11911;SDS011;6016;41.928;25.556;2023-03-24T13:43:16;3.83;;;2.75;;
11911;SDS011;6016;41.928;25.556;2023-03-24T13:45:47;3.83;;;2.95;;
11911;SDS011;6016;41.928;25.556;2023-03-24T13:48:17;3.05;;;2.53;;
11911;SDS011;6016;41.928;25.556;2023-03-24T13:50:55;4.00;;;2.78;;
11911;SDS011;6016;41.928;25.556;2023-03-24T13:53:29;3.47;;;2.88;;
11911;SDS011;6016;41.928;25.556;2023-03-24T13:55:59;4.10;;;2.95;;
11911;SDS011;6016;41.928;25.556;2023-03-24T13:58:43;4.35;;;2.65;;
11911;SDS011;6016;41.928;25.556;2023-03-24T14:01:20;3.70;;;2.67;;
11911;SDS011;6016;41.928;25.556;2023-03-24T14:06:51;4.80;;;3.13;;
11911;SDS011;6016;41.928;25.556;2023-03-24T14:09:19;4.30;;;3.00;;
11911;SDS011;6016;41.928;25.556;2023-03-24T14:11:48;4.70;;;2.95;;
11911;SDS011;6016;41.928;25.556;2023-03-24T14:14:32;5.10;;;3.17;;
11911;SDS011;6016;41.928;25.556;2023-03-24T14:17:12;6.60;;;3.20;;
11911;SDS011;6016;41.928;25.556;2023-03-24T14:19:40;6.30;;;3.30;;
11911;SDS011;6016;41.928;25.556;2023-03-24T14:22:10;4.53;;;3.28;;
11911;SDS011;6016;41.928;25.556;2023-03-24T14:24:39;4.22;;;3.40;;
11911;SDS011;6016;41.928;25.556;2023-03-24T14:27:30;4.97;;;3.50;;
11911;SDS011;6016;41.928;25.556;2023-03-24T14:30:00;4.30;;;3.30;;
11911;SDS011;6016;41.928;25.556;2023-03-24T14:32:32;4.65;;;3.40;;
11911;SDS011;6016;41.928;25.556;2023-03-24T14:35:04;5.75;;;3.30;;
11911;SDS011;6016;41.928;25.556;2023-03-24T14:37:50;5.22;;;3.58;;
11911;SDS011;6016;41.928;25.556;2023-03-24T14:40:26;5.82;;;3.63;;
11911;SDS011;6016;41.928;25.556;2023-03-24T14:43:01;4.95;;;3.75;;
11911;SDS011;6016;41.928;25.556;2023-03-24T14:45:37;5.18;;;3.80;;
11911;SDS011;6016;41.928;25.556;2023-03-24T14:48:29;4.78;;;3.45;;
11911;SDS011;6016;41.928;25.556;2023-03-24T14:50:59;5.28;;;3.10;;
11911;SDS011;6016;41.928;25.556;2023-03-24T14:53:39;4.25;;;3.10;;
11911;SDS011;6016;41.928;25.556;2023-03-24T14:56:08;4.85;;;3.33;;
11911;SDS011;6016;41.928;25.556;2023-03-24T14:58:40;6.18;;;3.67;;
11911;SDS011;6016;41.928;25.556;2023-03-24T15:01:09;5.72;;;3.50;;
11911;SDS011;6016;41.928;25.556;2023-03-24T15:03:40;5.68;;;4.28;;
11911;SDS011;6016;41.928;25.556;2023-03-24T15:06:14;6.07;;;4.30;;
11911;SDS011;6016;41.928;25.556;2023-03-24T15:08:43;6.32;;;4.38;;
11911;SDS011;6016;41.928;25.556;2023-03-24T15:11:15;6.87;;;4.87;;
11911;SDS011;6016;41.928;25.556;2023-03-24T15:13:44;8.45;;;5.60;;
11911;SDS011;6016;41.928;25.556;2023-03-24T15:16:18;10.30;;;5.75;;
11911;SDS011;6016;41.928;25.556;2023-03-24T15:18:49;9.35;;;5.85;;
11911;SDS011;6016;41.928;25.556;2023-03-24T15:21:23;9.30;;;6.47;;
11911;SDS011;6016;41.928;25.556;2023-03-24T15:23:52;12.75;;;7.70;;
11911;SDS011;6016;41.928;25.556;2023-03-24T15:26:20;11.50;;;6.38;;